createdAt,value
2022-10-31T00:00:31.045Z,84.92
2022-10-31T00:02:57.970Z,84.99
2022-10-31T00:05:24.612Z,85.42
2022-10-31T00:07:53.946Z,85.32
2022-10-31T00:10:20.383Z,85.24
2022-10-31T00:12:46.763Z,85.72
2022-10-31T00:15:13.163Z,85.82
2022-10-31T00:17:39.953Z,85.69
2022-10-31T00:20:06.981Z,85.54
2022-10-31T00:22:33.367Z,85.46
2022-10-31T00:24:59.892Z,85.98
2022-10-31T00:27:26.306Z,85.72
2022-10-31T00:29:52.693Z,86.09
2022-10-31T00:32:19.150Z,85.65
2022-10-31T00:34:45.620Z,85.14
2022-10-31T00:37:12.020Z,85.27
2022-10-31T00:39:38.816Z,84.92
2022-10-31T00:42:05.199Z,84.87
2022-10-31T00:44:31.567Z,84.84
2022-10-31T00:46:57.947Z,84.60
2022-10-31T00:49:24.465Z,84.78
2022-10-31T00:51:50.843Z,84.80
2022-10-31T00:54:17.179Z,84.85
2022-10-31T00:56:43.543Z,84.74
2022-10-31T01:00:36.580Z,86.27
2022-10-31T01:03:03.501Z,86.79
2022-10-31T01:05:30.044Z,86.84
2022-10-31T01:07:56.459Z,86.60
2022-10-31T01:10:22.838Z,86.61
2022-10-31T01:12:50.510Z,86.76
2022-10-31T01:15:22.029Z,86.45
2022-10-31T01:17:49.321Z,86.22
2022-10-31T01:20:17.175Z,86.51
2022-10-31T01:22:43.745Z,86.19
2022-10-31T01:25:11.148Z,86.54
2022-10-31T01:27:37.832Z,86.41
2022-10-31T01:30:07.766Z,86.60
2022-10-31T01:32:34.228Z,86.68
2022-10-31T01:35:00.638Z,86.81
2022-10-31T01:37:28.347Z,87.08
2022-10-31T01:39:54.766Z,87.21
2022-10-31T01:42:23.957Z,86.90
2022-10-31T01:45:00.662Z,86.75
2022-10-31T01:47:36.766Z,86.93
2022-10-31T01:50:10.653Z,86.57
2022-10-31T01:52:47.027Z,86.83
2022-10-31T01:55:22.579Z,87.10
2022-10-31T01:57:54.777Z,87.25
2022-10-31T02:00:22.448Z,87.12
2022-10-31T02:02:50.892Z,87.38
2022-10-31T02:05:21.051Z,87.32
2022-10-31T02:07:58.977Z,87.12
2022-10-31T02:10:25.964Z,86.81
2022-10-31T02:12:56.141Z,86.97
2022-10-31T02:15:22.714Z,87.15
2022-10-31T02:17:49.303Z,87.12
2022-10-31T02:20:20.092Z,86.91
2022-10-31T02:23:24.791Z,86.91
2022-10-31T02:26:10.363Z,86.88
2022-10-31T02:29:01.500Z,86.92
2022-10-31T02:31:50.653Z,86.26
2022-10-31T02:34:26.313Z,86.41
2022-10-31T02:37:23.647Z,86.67
2022-10-31T02:40:08.463Z,86.39
2022-10-31T02:43:10.433Z,86.38
2022-10-31T02:45:44.077Z,86.15
2022-10-31T02:48:19.279Z,86.56
2022-10-31T02:50:53.599Z,86.78
2022-10-31T02:53:20.133Z,86.23
2022-10-31T02:56:09.863Z,86.98
2022-10-31T02:58:47.079Z,87.06
2022-10-31T03:01:35.772Z,87.07
2022-10-31T03:04:11.563Z,87.81
2022-10-31T03:06:58.275Z,88.04
2022-10-31T03:09:31.328Z,88.26
2022-10-31T03:12:02.656Z,88.09
2022-10-31T03:14:54.729Z,88.12
2022-10-31T03:17:34.236Z,88.35
2022-10-31T03:20:02.158Z,88.07
2022-10-31T03:22:32.004Z,88.44
2022-10-31T03:25:01.004Z,88.72
2022-10-31T03:27:31.966Z,88.45
2022-10-31T03:30:02.674Z,88.55
2022-10-31T03:32:35.880Z,87.46
2022-10-31T03:35:07.249Z,87.60
2022-10-31T03:37:35.527Z,87.28
2022-10-31T03:40:05.945Z,86.98
2022-10-31T03:42:35.716Z,87.01
2022-10-31T03:45:11.429Z,86.65
2022-10-31T03:47:39.735Z,87.08
2022-10-31T03:50:08.523Z,87.41
2022-10-31T03:52:49.234Z,87.46
2022-10-31T03:55:24.430Z,87.25
2022-10-31T03:58:15.453Z,87.73
2022-10-31T04:00:46.453Z,88.00
2022-10-31T04:03:18.172Z,88.02
2022-10-31T04:05:48.445Z,87.84
2022-10-31T04:08:20.844Z,88.02
2022-10-31T04:10:50.267Z,88.38
2022-10-31T04:13:23.701Z,88.48
2022-10-31T04:15:53.158Z,87.92
2022-10-31T04:18:19.811Z,87.76
2022-10-31T04:20:49.535Z,87.60
2022-10-31T04:23:20.376Z,87.19
2022-10-31T04:25:46.969Z,86.92
2022-10-31T04:28:13.464Z,86.70
2022-10-31T04:30:39.998Z,86.39
2022-10-31T04:33:06.418Z,86.93
2022-10-31T04:35:32.814Z,87.32
2022-10-31T04:37:59.514Z,87.49
2022-10-31T04:40:25.981Z,88.01
2022-10-31T04:42:52.364Z,87.68
2022-10-31T04:45:21.161Z,87.54
2022-10-31T04:47:48.235Z,87.42
2022-10-31T04:50:14.799Z,87.80
2022-10-31T04:52:45.563Z,88.15
2022-10-31T04:55:12.896Z,87.96
2022-10-31T04:57:47.667Z,87.87
2022-10-31T05:00:17.386Z,88.31
2022-10-31T05:02:51.726Z,87.58
2022-10-31T05:05:20.418Z,86.91
2022-10-31T05:07:48.381Z,87.62
2022-10-31T05:10:19.303Z,87.75
2022-10-31T05:13:05.333Z,87.58
2022-10-31T05:15:32.431Z,87.56
2022-10-31T05:17:59.457Z,87.86
2022-10-31T05:20:28.717Z,87.87
2022-10-31T05:22:56.774Z,88.38
2022-10-31T05:25:27.199Z,88.91
2022-10-31T05:27:55.465Z,88.76
2022-10-31T05:30:25.052Z,88.74
2022-10-31T05:32:52.333Z,89.25
2022-10-31T05:35:25.316Z,89.16
2022-10-31T05:37:52.048Z,89.20
2022-10-31T05:40:20.400Z,89.66
2022-10-31T05:42:47.447Z,89.42
2022-10-31T05:45:18.383Z,89.43
2022-10-31T05:48:01.461Z,89.29
2022-10-31T05:50:31.379Z,89.55
2022-10-31T05:52:59.296Z,89.19
2022-10-31T05:55:26.583Z,88.99
2022-10-31T05:57:54.045Z,89.69
2022-10-31T06:00:21.856Z,89.67
2022-10-31T06:02:48.662Z,89.31
2022-10-31T06:05:15.348Z,89.70
2022-10-31T06:07:41.870Z,89.33
2022-10-31T06:10:09.454Z,89.42
2022-10-31T06:12:41.513Z,89.42
2022-10-31T06:15:09.481Z,89.32
2022-10-31T06:17:36.510Z,89.43
2022-10-31T06:20:03.965Z,89.51
2022-10-31T06:22:30.432Z,89.72
2022-10-31T06:24:56.870Z,89.69
2022-10-31T06:27:23.870Z,89.08
2022-10-31T06:29:50.910Z,88.80
2022-10-31T06:32:17.612Z,89.18
2022-10-31T06:34:44.490Z,90.02
2022-10-31T06:37:12.256Z,89.93
2022-10-31T06:39:38.823Z,89.81
2022-10-31T06:42:05.617Z,89.77
2022-10-31T06:44:32.640Z,89.81
2022-10-31T06:46:59.120Z,89.84
2022-10-31T06:49:25.652Z,89.51
2022-10-31T06:51:53.371Z,89.57
2022-10-31T06:54:20.008Z,89.33
2022-10-31T06:56:48.430Z,89.26
2022-10-31T06:59:15.447Z,88.94
2022-10-31T07:01:42.224Z,88.80
2022-10-31T07:04:10.862Z,88.40
2022-10-31T07:06:37.323Z,88.24
2022-10-31T07:09:03.935Z,87.89
2022-10-31T07:11:30.295Z,87.81
2022-10-31T07:13:57.166Z,86.83
2022-10-31T07:16:23.746Z,86.76
2022-10-31T07:18:50.994Z,86.06
2022-10-31T07:21:17.399Z,85.62
2022-10-31T07:23:44.704Z,85.55
2022-10-31T07:26:13.687Z,85.25
2022-10-31T07:28:40.035Z,85.07
2022-10-31T07:32:44.277Z,85.64
2022-10-31T07:35:13.328Z,84.72
2022-10-31T07:37:40.365Z,84.64
2022-10-31T07:40:08.999Z,84.94
2022-10-31T07:42:40.076Z,84.55
2022-10-31T07:45:09.157Z,85.00
2022-10-31T07:47:44.656Z,85.64
2022-10-31T07:50:13.997Z,85.71
2022-10-31T07:52:42.054Z,85.77
2022-10-31T07:55:08.865Z,84.85
2022-10-31T07:57:35.565Z,84.89
2022-10-31T08:00:02.043Z,84.97
2022-10-31T08:02:29.679Z,85.07
2022-10-31T08:05:00.299Z,85.40
2022-10-31T08:07:30.952Z,85.16
2022-10-31T08:09:57.563Z,85.53
2022-10-31T08:12:24.005Z,85.13
2022-10-31T08:14:51.049Z,84.70
2022-10-31T08:17:17.596Z,84.42
2022-10-31T08:19:44.039Z,84.40
2022-10-31T08:22:10.412Z,85.16
2022-10-31T08:24:36.839Z,84.80
2022-10-31T08:27:03.934Z,84.92
2022-10-31T08:29:30.416Z,84.88
2022-10-31T08:31:58.784Z,84.13
2022-10-31T08:34:25.229Z,83.81
2022-10-31T08:36:52.720Z,83.78
2022-10-31T08:39:19.096Z,83.04
2022-10-31T08:41:45.651Z,82.71
2022-10-31T08:44:12.020Z,82.12
2022-10-31T08:46:38.462Z,82.02
2022-10-31T08:49:04.910Z,80.85
2022-10-31T08:51:31.784Z,80.32
2022-10-31T08:53:58.682Z,80.65
2022-10-31T08:56:25.206Z,80.17
2022-10-31T08:58:54.144Z,79.80
2022-10-31T09:01:22.274Z,80.16
2022-10-31T09:03:49.055Z,80.99
2022-10-31T09:06:15.685Z,81.17
2022-10-31T09:08:42.236Z,81.18
2022-10-31T09:11:08.610Z,81.86
2022-10-31T09:13:40.244Z,81.92
2022-10-31T09:16:08.135Z,82.61
2022-10-31T09:18:35.073Z,82.88
2022-10-31T09:21:02.025Z,82.46
2022-10-31T09:23:29.065Z,82.40
2022-10-31T09:25:56.044Z,81.13
2022-10-31T09:28:24.426Z,80.91
2022-10-31T09:30:53.388Z,80.58
2022-10-31T09:33:20.543Z,80.22
2022-10-31T09:35:47.184Z,79.50
2022-10-31T09:38:16.323Z,79.35
2022-10-31T09:41:04.321Z,79.71
2022-10-31T09:43:46.284Z,79.40
2022-10-31T09:46:12.682Z,79.48
2022-10-31T09:49:11.435Z,78.59
2022-10-31T09:51:52.981Z,77.57
2022-10-31T09:54:27.091Z,76.40
2022-10-31T09:56:54.069Z,74.60
2022-10-31T09:59:31.112Z,72.61
2022-10-31T10:02:03.852Z,70.52
2022-10-31T10:04:42.136Z,68.42
2022-10-31T10:07:34.811Z,65.91
2022-10-31T10:10:13.811Z,64.60
2022-10-31T10:12:52.460Z,63.79
2022-10-31T10:15:37.742Z,65.90
2022-10-31T10:18:34.555Z,65.88
2022-10-31T10:21:30.784Z,63.85
2022-10-31T10:24:15.245Z,64.77
2022-10-31T10:26:48.072Z,63.60
2022-10-31T10:29:32.339Z,59.59
2022-10-31T10:32:03.521Z,59.12
2022-10-31T10:34:37.125Z,59.73
2022-10-31T10:37:13.961Z,60.03
2022-10-31T10:39:46.278Z,62.55
2022-10-31T10:42:33.843Z,64.41
2022-10-31T10:45:26.533Z,64.44
2022-10-31T10:48:05.239Z,65.57
2022-10-31T10:50:37.251Z,65.30
2022-10-31T10:53:36.538Z,64.78
2022-10-31T10:56:30.585Z,63.96
2022-10-31T10:58:58.509Z,65.81
2022-10-31T11:01:25.614Z,65.00
2022-10-31T11:03:52.136Z,63.84
2022-10-31T11:06:23.052Z,64.50
2022-10-31T11:08:50.727Z,63.04
2022-10-31T11:11:33.568Z,64.05
2022-10-31T11:14:13.795Z,64.24
2022-10-31T11:16:43.958Z,65.03
2022-10-31T11:19:13.236Z,65.15
2022-10-31T11:21:39.704Z,65.24
2022-10-31T11:24:11.990Z,64.33
2022-10-31T11:26:40.424Z,64.83
2022-10-31T11:29:15.498Z,63.24
2022-10-31T11:31:42.861Z,61.35
2022-10-31T11:34:22.453Z,61.57
2022-10-31T11:36:49.840Z,61.64
2022-10-31T11:39:21.400Z,61.94
2022-10-31T11:41:49.152Z,61.70
2022-10-31T11:44:18.648Z,63.05
2022-10-31T11:46:56.346Z,63.20
2022-10-31T11:49:28.892Z,63.21
2022-10-31T11:51:58.092Z,62.51
2022-10-31T11:54:36.156Z,62.22
2022-10-31T11:57:03.819Z,61.97
2022-10-31T11:59:34.635Z,61.02
2022-10-31T12:02:02.602Z,61.02
2022-10-31T12:04:41.835Z,60.24
2022-10-31T12:07:10.034Z,60.20
2022-10-31T12:09:37.914Z,59.95
2022-10-31T12:12:22.718Z,59.77
2022-10-31T12:15:17.568Z,60.50
2022-10-31T12:17:47.625Z,60.14
2022-10-31T12:20:51.856Z,59.41
2022-10-31T12:23:53.326Z,59.09
2022-10-31T12:26:27.310Z,59.28
2022-10-31T12:29:08.329Z,59.84
2022-10-31T12:31:47.424Z,59.73
2022-10-31T12:34:52.393Z,60.35
2022-10-31T12:37:51.943Z,60.59
2022-10-31T12:40:39.602Z,59.92
2022-10-31T12:43:05.932Z,60.00
2022-10-31T12:45:55.869Z,60.15
2022-10-31T12:48:59.699Z,59.58
2022-10-31T12:51:44.950Z,60.26
2022-10-31T12:54:11.288Z,60.88
2022-10-31T12:57:01.246Z,60.48
2022-10-31T12:59:41.634Z,60.95
2022-10-31T13:02:16.163Z,60.97
2022-10-31T13:04:58.990Z,60.80
2022-10-31T13:07:40.675Z,60.83
2022-10-31T13:10:17.492Z,60.87
2022-10-31T13:12:45.625Z,61.19
2022-10-31T13:15:18.654Z,60.90
2022-10-31T13:17:49.635Z,60.55
2022-10-31T13:20:24.402Z,60.88
2022-10-31T13:23:23.494Z,61.20
2022-10-31T13:25:59.605Z,60.86
2022-10-31T13:28:45.458Z,60.59
2022-10-31T13:31:14.262Z,60.03
2022-10-31T13:33:57.176Z,59.96
2022-10-31T13:36:55.366Z,60.46
2022-10-31T13:39:27.473Z,60.59
2022-10-31T13:42:13.167Z,60.44
2022-10-31T13:44:39.630Z,61.16
2022-10-31T13:47:27.122Z,61.37
2022-10-31T13:50:20.610Z,61.56
2022-10-31T13:52:47.455Z,61.75
2022-10-31T13:55:46.407Z,61.58
2022-10-31T13:58:28.329Z,61.61
2022-10-31T14:01:10.823Z,61.85
2022-10-31T14:07:03.573Z,62.10
2022-10-31T14:09:34.099Z,62.00
2022-10-31T14:12:05.611Z,61.95
2022-10-31T14:14:40.751Z,62.09
2022-10-31T14:17:18.846Z,62.17
2022-10-31T14:20:16.992Z,62.33
2022-10-31T14:22:43.646Z,62.13
2022-10-31T14:25:37.806Z,62.38
2022-10-31T14:28:21.328Z,62.23
2022-10-31T14:30:58.513Z,62.24
2022-10-31T14:33:30.954Z,62.35
2022-10-31T14:36:23.170Z,62.44
2022-10-31T14:39:12.027Z,62.48
2022-10-31T14:41:49.776Z,62.81
2022-10-31T14:44:18.797Z,62.65
2022-10-31T14:46:51.348Z,62.81
2022-10-31T14:49:23.766Z,63.09
2022-10-31T14:51:52.389Z,63.08
2022-10-31T14:54:42.178Z,63.06
2022-10-31T14:57:18.248Z,63.21
2022-10-31T14:59:50.350Z,63.21
2022-10-31T15:02:33.344Z,63.34
2022-10-31T15:05:00.127Z,62.91
2022-10-31T15:07:28.174Z,62.77
2022-10-31T15:10:00.313Z,63.05
2022-10-31T15:12:35.147Z,62.65
2022-10-31T15:15:23.549Z,62.74
2022-10-31T15:17:58.134Z,62.54
2022-10-31T15:20:37.069Z,62.40
2022-10-31T15:23:03.561Z,62.15
2022-10-31T15:25:35.401Z,62.41
2022-10-31T15:28:02.148Z,61.76
2022-10-31T15:30:30.159Z,61.47
2022-10-31T15:32:59.182Z,60.95
2022-10-31T15:35:29.325Z,61.05
2022-10-31T15:37:57.536Z,60.82
2022-10-31T15:40:26.204Z,61.31
2022-10-31T15:43:02.249Z,60.63
2022-10-31T15:45:31.485Z,60.33
2022-10-31T15:48:14.811Z,60.19
2022-10-31T15:50:46.298Z,60.02
2022-10-31T15:53:20.982Z,60.87
2022-10-31T15:55:52.244Z,60.35
2022-10-31T15:58:19.302Z,60.52
2022-10-31T16:00:45.947Z,60.84
2022-10-31T16:03:15.143Z,61.28
2022-10-31T16:11:37.948Z,61.10
2022-10-31T16:14:29.113Z,61.33
2022-10-31T16:16:58.962Z,61.96
2022-10-31T16:19:33.505Z,61.73
2022-10-31T16:22:06.935Z,62.08
2022-10-31T16:24:35.849Z,62.76
2022-10-31T16:27:07.914Z,62.80
2022-10-31T16:29:37.198Z,62.94
2022-10-31T16:32:03.816Z,62.73
2022-10-31T16:34:30.276Z,62.92
2022-10-31T16:36:56.725Z,62.61
2022-10-31T16:39:23.320Z,63.18
2022-10-31T16:41:52.840Z,63.46
2022-10-31T16:44:23.479Z,63.68
2022-10-31T16:47:21.223Z,63.60
2022-10-31T16:49:53.514Z,63.81
2022-10-31T16:52:19.888Z,63.75
2022-10-31T16:54:46.213Z,63.66
2022-10-31T16:57:20.670Z,63.68
2022-10-31T16:59:52.180Z,63.80
2022-10-31T17:02:18.945Z,63.56
2022-10-31T17:04:45.452Z,63.36
2022-10-31T17:07:11.831Z,63.85
2022-10-31T17:09:38.293Z,63.49
2022-10-31T17:12:07.817Z,63.52
2022-10-31T17:14:34.819Z,63.68
2022-10-31T17:17:01.264Z,63.84
2022-10-31T17:19:27.659Z,63.98
2022-10-31T17:21:54.872Z,63.82
2022-10-31T17:24:21.404Z,63.85
2022-10-31T17:26:47.952Z,64.11
2022-10-31T17:29:15.091Z,64.52
2022-10-31T17:31:42.231Z,64.54
2022-10-31T17:34:09.024Z,64.77
2022-10-31T17:36:36.403Z,64.64
2022-10-31T17:39:05.417Z,64.39
2022-10-31T17:41:32.003Z,64.48
2022-10-31T17:43:59.605Z,64.41
2022-10-31T17:46:27.578Z,64.61
2022-10-31T17:48:54.041Z,64.41
2022-10-31T17:51:20.431Z,64.69
2022-10-31T17:53:48.614Z,64.85
2022-10-31T17:56:15.117Z,64.51
2022-10-31T17:58:41.641Z,64.27
2022-10-31T18:01:13.845Z,64.59
2022-10-31T18:03:41.099Z,64.92
2022-10-31T18:06:08.460Z,64.89
2022-10-31T18:08:37.427Z,65.55
2022-10-31T18:11:12.045Z,65.47
2022-10-31T18:13:38.962Z,65.81
2022-10-31T18:16:19.049Z,65.86
2022-10-31T18:18:50.779Z,65.85
2022-10-31T18:21:17.886Z,65.75
2022-10-31T18:23:44.260Z,65.85
2022-10-31T18:26:11.167Z,65.39
2022-10-31T18:28:38.149Z,65.54
2022-10-31T18:31:04.702Z,65.47
2022-10-31T18:33:31.278Z,65.39
2022-10-31T18:36:07.203Z,65.43
2022-10-31T18:38:34.430Z,65.53
2022-10-31T18:41:00.872Z,65.63
2022-10-31T18:43:27.257Z,65.51
2022-10-31T18:45:57.964Z,65.45
2022-10-31T18:48:24.717Z,65.58
2022-10-31T18:50:51.156Z,65.01
2022-10-31T18:53:17.547Z,65.56
2022-10-31T18:57:36.285Z,65.62
2022-10-31T19:00:05.279Z,65.79
2022-10-31T19:02:31.725Z,65.77
2022-10-31T19:04:58.136Z,65.42
2022-10-31T19:07:24.537Z,65.71
2022-10-31T19:09:50.872Z,66.16
2022-10-31T19:12:17.225Z,66.16
2022-10-31T19:14:43.604Z,66.46
2022-10-31T19:17:10.386Z,66.97
2022-10-31T19:19:38.268Z,67.01
2022-10-31T19:22:04.660Z,67.05
2022-10-31T19:24:31.043Z,67.17
2022-10-31T19:26:58.344Z,67.58
2022-10-31T19:29:24.735Z,67.65
2022-10-31T19:31:53.457Z,67.70
2022-10-31T19:34:19.790Z,68.04
2022-10-31T19:36:46.157Z,67.91
2022-10-31T19:39:12.672Z,68.07
2022-10-31T19:41:39.089Z,68.24
2022-10-31T19:44:10.555Z,68.24
2022-10-31T19:46:59.745Z,68.49
2022-10-31T19:49:26.404Z,68.41
2022-10-31T19:51:52.886Z,68.41
2022-10-31T19:54:19.306Z,68.62
2022-10-31T19:56:45.751Z,68.53
2022-10-31T19:59:12.800Z,68.85
2022-10-31T20:01:39.413Z,69.01
2022-10-31T20:04:06.917Z,68.75
2022-10-31T20:06:38.693Z,68.79
2022-10-31T20:09:08.370Z,68.74
2022-10-31T20:11:36.619Z,68.54
2022-10-31T20:14:03.802Z,68.31
2022-10-31T20:16:30.382Z,68.49
2022-10-31T20:18:57.960Z,68.61
2022-10-31T20:21:26.607Z,68.70
2022-10-31T20:24:00.657Z,68.49
2022-10-31T20:26:28.671Z,68.55
2022-10-31T20:28:56.272Z,68.62
2022-10-31T20:31:25.141Z,68.61
2022-10-31T20:33:53.463Z,68.72
2022-10-31T20:36:21.132Z,68.66
2022-10-31T20:38:48.148Z,68.84
2022-10-31T20:41:15.339Z,68.86
2022-10-31T20:43:42.103Z,68.73
2022-10-31T20:46:12.518Z,68.78
2022-10-31T20:48:39.137Z,68.53
2022-10-31T20:51:13.297Z,68.43
2022-10-31T20:53:39.820Z,68.42
2022-10-31T20:56:07.902Z,68.29
2022-10-31T20:58:36.029Z,68.39
2022-10-31T21:01:02.749Z,67.95
2022-10-31T21:03:29.326Z,68.02
2022-10-31T21:06:01.844Z,67.87
2022-10-31T21:08:30.913Z,67.67
2022-10-31T21:10:58.236Z,68.05
2022-10-31T21:13:25.138Z,67.93
2022-10-31T21:16:03.403Z,67.89
2022-10-31T21:18:30.050Z,67.68
2022-10-31T21:20:56.602Z,67.65
2022-10-31T21:23:23.558Z,67.69
2022-10-31T21:25:50.186Z,67.93
2022-10-31T21:28:17.650Z,68.09
2022-10-31T21:30:47.391Z,67.93
2022-10-31T21:33:14.779Z,67.90
2022-10-31T21:35:41.364Z,67.84
2022-10-31T21:38:07.777Z,68.04
2022-10-31T21:40:34.377Z,67.97
2022-10-31T21:43:01.267Z,67.89
2022-10-31T21:45:27.916Z,68.19
2022-10-31T21:47:54.358Z,68.05
2022-10-31T21:50:20.844Z,68.24
2022-10-31T21:52:47.203Z,68.65
2022-10-31T21:55:13.802Z,68.41
2022-10-31T21:57:40.255Z,68.53
2022-10-31T22:00:08.902Z,68.43
2022-10-31T22:02:36.072Z,68.67
2022-10-31T22:05:02.861Z,68.65
2022-10-31T22:07:29.415Z,68.72
2022-10-31T22:09:55.843Z,68.81
2022-10-31T22:12:22.243Z,69.11
2022-10-31T22:14:48.686Z,68.73
2022-10-31T22:17:15.184Z,68.74
2022-10-31T22:19:41.606Z,68.79
2022-10-31T22:22:07.984Z,68.75
2022-10-31T22:24:34.358Z,68.65
2022-10-31T22:27:00.745Z,68.58
2022-10-31T22:29:27.694Z,68.79
2022-10-31T22:31:58.558Z,68.87
2022-10-31T22:34:27.151Z,68.72
2022-10-31T22:36:55.293Z,68.67
2022-10-31T22:39:21.717Z,68.63
2022-10-31T22:41:48.089Z,68.37
2022-10-31T22:44:14.457Z,68.31
2022-10-31T22:46:41.008Z,68.19
2022-10-31T22:49:11.777Z,68.11
2022-10-31T22:51:43.101Z,68.37
2022-10-31T22:54:15.523Z,68.37
2022-10-31T22:56:42.348Z,68.09
2022-10-31T22:59:12.472Z,68.20
2022-10-31T23:01:39.395Z,68.50
2022-10-31T23:04:06.098Z,68.70
2022-10-31T23:06:33.692Z,68.96
2022-10-31T23:09:03.129Z,69.43
2022-10-31T23:11:35.473Z,69.56
2022-10-31T23:14:10.835Z,69.67
2022-10-31T23:16:52.113Z,69.70
2022-10-31T23:19:23.275Z,69.88
2022-10-31T23:22:02.409Z,69.87
2022-10-31T23:24:39.630Z,70.05
2022-10-31T23:27:12.162Z,70.27
2022-10-31T23:29:45.935Z,70.25
2022-10-31T23:32:21.695Z,70.32
2022-10-31T23:34:50.866Z,71.10
2022-10-31T23:37:20.573Z,71.46
2022-10-31T23:39:47.272Z,71.27
2022-10-31T23:42:14.255Z,71.37
2022-10-31T23:44:40.833Z,72.04
2022-10-31T23:47:07.601Z,72.88
2022-10-31T23:49:34.347Z,73.77
2022-10-31T23:52:01.166Z,74.96
2022-10-31T23:54:28.251Z,74.36
2022-10-31T23:56:55.355Z,75.20
2022-10-31T23:59:22.786Z,75.19
